TimeMST,TemperatureF,Dew PointF,Humidity,Sea Level PressureIn,VisibilityMPH,Wind Direction,Wind SpeedMPH,Gust SpeedMPH,PrecipitationIn,Events,Conditions,WindDirDegrees,DateUTC
12:56 AM,32.0,26.1,79,29.74,-9999.0,NW,32.2,40.3,N/A,,Unknown,320,2013-02-18 07:56:00
1:56 AM,28.0,21.9,78,29.80,-9999.0,NW,27.6,43.7,N/A,,Unknown,320,2013-02-18 08:56:00
2:56 AM,24.1,17.1,75,29.84,-9999.0,NW,32.2,44.9,N/A,,Unknown,320,2013-02-18 09:56:00
3:56 AM,23.0,15.1,72,29.89,-9999.0,NNW,32.2,44.9,N/A,,Unknown,330,2013-02-18 10:56:00
4:56 AM,19.9,12.9,74,29.93,-9999.0,NNW,27.6,34.5,N/A,,Unknown,330,2013-02-18 11:56:00
5:56 AM,19.0,12.9,77,29.96,-9999.0,NNW,25.3,34.5,N/A,,Unknown,340,2013-02-18 12:56:00
6:56 AM,19.0,12.9,77,30.01,-9999.0,NW,19.6,31.1,N/A,,Unknown,320,2013-02-18 13:56:00
7:56 AM,19.0,12.0,74,30.04,-9999.0,NNW,24.2,31.1,N/A,,Unknown,330,2013-02-18 14:56:00
8:56 AM,19.9,10.0,65,30.05,-9999.0,NNW,28.8,35.7,N/A,,Unknown,340,2013-02-18 15:56:00
9:56 AM,23.0,10.9,60,30.06,-9999.0,NNW,25.3,32.2,N/A,,Unknown,330,2013-02-18 16:56:00
10:56 AM,25.0,10.9,55,30.07,-9999.0,NW,23.0,31.1,N/A,,Unknown,320,2013-02-18 17:56:00
11:56 AM,26.1,10.9,53,30.07,-9999.0,NNW,27.6,31.1,N/A,,Unknown,340,2013-02-18 18:56:00
12:56 PM,28.0,12.0,51,30.06,-9999.0,NNW,23.0,33.4,N/A,,Unknown,330,2013-02-18 19:56:00
1:56 PM,25.0,10.9,55,30.09,-9999.0,NNW,24.2,32.2,N/A,,Unknown,330,2013-02-18 20:56:00
2:56 PM,24.1,10.9,57,30.12,-9999.0,NW,26.5,35.7,N/A,,Unknown,320,2013-02-18 21:56:00
3:56 PM,24.1,10.0,55,30.14,-9999.0,NNW,27.6,33.4,N/A,,Unknown,330,2013-02-18 22:56:00
4:56 PM,21.9,8.1,55,30.17,-9999.0,NW,23.0,29.9,N/A,,Unknown,320,2013-02-18 23:56:00
5:56 PM,21.0,9.0,60,30.20,-9999.0,NW,21.9,27.6,N/A,,Unknown,320,2013-02-19 00:56:00
6:56 PM,19.9,10.0,65,30.21,-9999.0,NNW,21.9,-,N/A,,Unknown,340,2013-02-19 01:56:00
7:56 PM,15.1,8.1,74,30.24,-9999.0,NNW,15.0,-,N/A,,Unknown,340,2013-02-19 02:56:00
8:56 PM,12.0,7.0,80,30.26,-9999.0,North,15.0,-,N/A,,Unknown,360,2013-02-19 03:56:00
9:56 PM,10.0,6.1,84,30.29,-9999.0,North,12.7,-,N/A,,Unknown,10,2013-02-19 04:56:00
10:56 PM,10.0,5.0,80,30.30,-9999.0,North,11.5,-,N/A,,Unknown,10,2013-02-19 05:56:00